메인 페이지
METAR-TAF:

METAR-TAF

공항 :

하얼빈 타이핑 국제공항

하얼빈, 중국

위도: 45-45N, 경도: 126-46E, 고도: 143m

현재 날씨관측

예보는 1 시간 24분 전, 23:00시(UTC)에 발표되었습니다.
북서8kt풍과 북북서풍을 오가는
온도 8°C
습도 42%
기압 1016 hPa
시정 10km 이상
1500m 미만 상공 구름 및 적란운 없음

METAR: ZYHB 182300Z 31004MPS 270V340 CAVOK 08/M04 Q1016 NOSIG

시각: 08:24 (00:24 UTC)

예보

예보는 3 시간 21분 전, 21:03시(UTC)에 발표되었습니다.
예보 대상 시간: 19일 00시부터 19일 24시까지 (UTC)
북서12kt, 순간 최대 풍속 23kt
시정: 6000m
고도 3300ft 상공 구름 보통
전환 중
19일 09시부터 19일 10시까지 (UTC)
남남동8kt

TAF: ZYHB 182103Z 1900/1924 32006G12MPS 6000 SCT033 TX13/1906Z TN01/1921Z BECMG 1909/1910 16004MPS

4,000개 이상의 공항 관측 자료 및 예보 (METAR 및 TAF 보고).

지도상에서 검색 가능한 기상관측소가 노란 점과 빨간 점으로 표시되어 있습니다.

기상관측소 명을 보려면 표시 위로 마우스를 이동하세요.

날씨 관측과 예보를 보려면 클릭하세요.

지도 변경 : 확대하려면 엑스 표시가 있는 녹색 버튼, 축소하려면 빼기 표시가 있는 녹색 버튼, 다음 페이지의 지도를 보려면 녹색 화살표를 클릭하세요.


METAR-TAF: